sensor_id;sensor_type;location;lat;lon;timestamp;pressure;altitude;pressure_sealevel;temperature;humidity
59787;BME280;45672;51.612;5.536;2023-03-25T00:00:09;100016.34;;;8.94;98.78
59787;BME280;45672;51.612;5.536;2023-03-25T00:02:41;100024.31;;;8.94;98.47
59787;BME280;45672;51.612;5.536;2023-03-25T00:05:09;100007.56;;;8.85;98.92
59787;BME280;45672;51.612;5.536;2023-03-25T00:07:35;100018.69;;;8.89;97.90
59787;BME280;45672;51.612;5.536;2023-03-25T00:10:01;100025.00;;;8.96;97.30
59787;BME280;45672;51.612;5.536;2023-03-25T00:12:26;100027.31;;;8.99;97.60
59787;BME280;45672;51.612;5.536;2023-03-25T00:14:52;100025.47;;;9.00;97.08
59787;BME280;45672;51.612;5.536;2023-03-25T00:17:21;100030.63;;;9.01;96.62
59787;BME280;45672;51.612;5.536;2023-03-25T00:19:47;100011.88;;;8.94;96.87
59787;BME280;45672;51.612;5.536;2023-03-25T00:22:15;100026.50;;;9.07;96.66
59787;BME280;45672;51.612;5.536;2023-03-25T00:24:41;100032.63;;;9.07;96.12
59787;BME280;45672;51.612;5.536;2023-03-25T00:27:06;100024.50;;;9.09;96.12
59787;BME280;45672;51.612;5.536;2023-03-25T00:29:31;100040.25;;;9.10;95.37
59787;BME280;45672;51.612;5.536;2023-03-25T00:31:56;100029.63;;;9.10;94.67
59787;BME280;45672;51.612;5.536;2023-03-25T00:34:22;100025.47;;;9.08;94.66
59787;BME280;45672;51.612;5.536;2023-03-25T00:36:47;100017.69;;;9.06;94.83
59787;BME280;45672;51.612;5.536;2023-03-25T00:39:12;100023.97;;;9.05;93.75
59787;BME280;45672;51.612;5.536;2023-03-25T00:41:38;100011.22;;;9.01;94.01
59787;BME280;45672;51.612;5.536;2023-03-25T00:44:06;100037.25;;;9.05;93.39
59787;BME280;45672;51.612;5.536;2023-03-25T00:46:32;100032.09;;;9.04;92.32
59787;BME280;45672;51.612;5.536;2023-03-25T00:48:58;100016.53;;;9.09;91.79
59787;BME280;45672;51.612;5.536;2023-03-25T00:51:25;100022.81;;;9.08;92.10
59787;BME280;45672;51.612;5.536;2023-03-25T00:53:53;100036.09;;;9.08;92.50
59787;BME280;45672;51.612;5.536;2023-03-25T00:56:23;100016.88;;;9.06;92.28
59787;BME280;45672;51.612;5.536;2023-03-25T00:58:49;100029.28;;;9.05;92.75
59787;BME280;45672;51.612;5.536;2023-03-25T01:01:18;100027.66;;;9.04;92.63
59787;BME280;45672;51.612;5.536;2023-03-25T01:03:48;100031.94;;;9.05;92.54
59787;BME280;45672;51.612;5.536;2023-03-25T01:06:15;100030.47;;;9.03;92.93
59787;BME280;45672;51.612;5.536;2023-03-25T01:08:42;100016.03;;;8.97;92.79
59787;BME280;45672;51.612;5.536;2023-03-25T01:11:20;100028.97;;;9.00;92.88
59787;BME280;45672;51.612;5.536;2023-03-25T01:13:45;100027.47;;;8.97;93.32
59787;BME280;45672;51.612;5.536;2023-03-25T01:16:11;100032.59;;;8.99;93.47
59787;BME280;45672;51.612;5.536;2023-03-25T01:18:37;100027.31;;;8.99;93.91
59787;BME280;45672;51.612;5.536;2023-03-25T01:21:07;100025.63;;;8.98;94.23
59787;BME280;45672;51.612;5.536;2023-03-25T01:23:33;100017.03;;;8.96;94.84
59787;BME280;45672;51.612;5.536;2023-03-25T01:25:59;100020.84;;;8.93;94.41
59787;BME280;45672;51.612;5.536;2023-03-25T01:28:25;100020.00;;;8.93;94.50
59787;BME280;45672;51.612;5.536;2023-03-25T01:30:59;100024.31;;;8.94;94.10
59787;BME280;45672;51.612;5.536;2023-03-25T01:33:24;100020.34;;;8.90;94.09
59787;BME280;45672;51.612;5.536;2023-03-25T01:35:51;100025.66;;;8.90;94.53
59787;BME280;45672;51.612;5.536;2023-03-25T01:38:16;100015.69;;;8.92;95.24
59787;BME280;45672;51.612;5.536;2023-03-25T01:40:44;100028.31;;;8.90;95.08
59787;BME280;45672;51.612;5.536;2023-03-25T01:43:10;100016.19;;;8.79;96.33
59787;BME280;45672;51.612;5.536;2023-03-25T01:45:38;100011.19;;;8.68;96.33
59787;BME280;45672;51.612;5.536;2023-03-25T01:48:23;100026.59;;;8.72;97.04
59787;BME280;45672;51.612;5.536;2023-03-25T01:50:53;100023.94;;;8.72;97.45
59787;BME280;45672;51.612;5.536;2023-03-25T01:53:20;100025.28;;;8.68;98.27
59787;BME280;45672;51.612;5.536;2023-03-25T01:55:45;100020.28;;;8.57;99.82
59787;BME280;45672;51.612;5.536;2023-03-25T01:58:14;100018.94;;;8.44;100.00
59787;BME280;45672;51.612;5.536;2023-03-25T02:00:43;100011.25;;;8.33;100.00
59787;BME280;45672;51.612;5.536;2023-03-25T02:03:10;100010.84;;;8.20;100.00
59787;BME280;45672;51.612;5.536;2023-03-25T02:08:25;100004.50;;;8.04;100.00
59787;BME280;45672;51.612;5.536;2023-03-25T02:10:51;100007.16;;;8.04;100.00
59787;BME280;45672;51.612;5.536;2023-03-25T02:13:18;99993.91;;;8.04;100.00
59787;BME280;45672;51.612;5.536;2023-03-25T02:18:46;100006.91;;;8.24;100.00
59787;BME280;45672;51.612;5.536;2023-03-25T02:41:16;99992.41;;;7.67;100.00
59787;BME280;45672;51.612;5.536;2023-03-25T02:43:47;99997.38;;;7.62;100.00
59787;BME280;45672;51.612;5.536;2023-03-25T02:46:17;99997.81;;;7.57;100.00
59787;BME280;45672;51.612;5.536;2023-03-25T02:52:22;99996.06;;;7.66;100.00
59787;BME280;45672;51.612;5.536;2023-03-25T02:54:50;99984.19;;;7.79;100.00
59787;BME280;45672;51.612;5.536;2023-03-25T02:57:22;99982.56;;;7.86;100.00
59787;BME280;45672;51.612;5.536;2023-03-25T02:59:49;99986.56;;;7.90;100.00
59787;BME280;45672;51.612;5.536;2023-03-25T03:02:20;99981.63;;;7.95;100.00
59787;BME280;45672;51.612;5.536;2023-03-25T03:04:48;99983.94;;;7.98;100.00
59787;BME280;45672;51.612;5.536;2023-03-25T03:07:23;99980.66;;;8.04;100.00
59787;BME280;45672;51.612;5.536;2023-03-25T03:09:55;99987.47;;;8.07;100.00
59787;BME280;45672;51.612;5.536;2023-03-25T03:20:54;99982.28;;;7.97;100.00
59787;BME280;45672;51.612;5.536;2023-03-25T03:23:29;99973.81;;;7.85;100.00
59787;BME280;45672;51.612;5.536;2023-03-25T03:28:47;99984.22;;;7.87;100.00
59787;BME280;45672;51.612;5.536;2023-03-25T03:31:19;99982.56;;;7.78;100.00
59787;BME280;45672;51.612;5.536;2023-03-25T03:33:56;99971.50;;;7.56;100.00
59787;BME280;45672;51.612;5.536;2023-03-25T03:36:30;99967.81;;;7.49;100.00
59787;BME280;45672;51.612;5.536;2023-03-25T03:39:06;99995.28;;;7.48;100.00
59787;BME280;45672;51.612;5.536;2023-03-25T03:41:37;99983.50;;;7.42;100.00
59787;BME280;45672;51.612;5.536;2023-03-25T03:44:12;99991.59;;;7.40;100.00
59787;BME280;45672;51.612;5.536;2023-03-25T03:46:43;99966.22;;;7.30;100.00
59787;BME280;45672;51.612;5.536;2023-03-25T03:49:15;99986.28;;;7.40;100.00
59787;BME280;45672;51.612;5.536;2023-03-25T03:51:46;99967.25;;;7.37;100.00
59787;BME280;45672;51.612;5.536;2023-03-25T03:54:19;99971.41;;;7.39;100.00
59787;BME280;45672;51.612;5.536;2023-03-25T03:56:51;99986.28;;;7.40;100.00
59787;BME280;45672;51.612;5.536;2023-03-25T03:59:26;99977.69;;;7.38;100.00
59787;BME280;45672;51.612;5.536;2023-03-25T04:01:58;99973.44;;;7.46;100.00
59787;BME280;45672;51.612;5.536;2023-03-25T04:04:26;99975.31;;;7.53;100.00
59787;BME280;45672;51.612;5.536;2023-03-25T04:06:57;99976.03;;;7.64;100.00
59787;BME280;45672;51.612;5.536;2023-03-25T04:12:27;99967.59;;;7.68;100.00
59787;BME280;45672;51.612;5.536;2023-03-25T04:14:59;99972.94;;;7.76;100.00
59787;BME280;45672;51.612;5.536;2023-03-25T04:17:25;99979.41;;;7.82;100.00
59787;BME280;45672;51.612;5.536;2023-03-25T04:20:00;99978.28;;;7.85;100.00
59787;BME280;45672;51.612;5.536;2023-03-25T04:22:31;99976.28;;;7.87;100.00
59787;BME280;45672;51.612;5.536;2023-03-25T04:24:56;99967.97;;;7.82;100.00
59787;BME280;45672;51.612;5.536;2023-03-25T04:27:24;99981.75;;;7.85;100.00
59787;BME280;45672;51.612;5.536;2023-03-25T04:29:53;99993.03;;;7.96;100.00
59787;BME280;45672;51.612;5.536;2023-03-25T04:32:21;99982.28;;;7.97;100.00
59787;BME280;45672;51.612;5.536;2023-03-25T04:34:47;99995.25;;;8.00;100.00
59787;BME280;45672;51.612;5.536;2023-03-25T04:37:13;99978.97;;;7.95;100.00
59787;BME280;45672;51.612;5.536;2023-03-25T04:39:38;99975.53;;;8.03;100.00
59787;BME280;45672;51.612;5.536;2023-03-25T04:42:04;99979.34;;;8.00;100.00
59787;BME280;45672;51.612;5.536;2023-03-25T04:44:30;99990.91;;;7.99;100.00
59787;BME280;45672;51.612;5.536;2023-03-25T04:47:04;100003.69;;;8.04;100.00
59787;BME280;45672;51.612;5.536;2023-03-25T04:49:31;99988.75;;;7.94;100.00
59787;BME280;45672;51.612;5.536;2023-03-25T04:51:56;99988.22;;;7.91;100.00
59787;BME280;45672;51.612;5.536;2023-03-25T04:54:22;99978.44;;;7.83;100.00
59787;BME280;45672;51.612;5.536;2023-03-25T04:56:48;99983.56;;;7.85;100.00
59787;BME280;45672;51.612;5.536;2023-03-25T04:59:18;99988.56;;;7.88;100.00
59787;BME280;45672;51.612;5.536;2023-03-25T05:01:44;99985.22;;;7.86;100.00
59787;BME280;45672;51.612;5.536;2023-03-25T05:04:10;99995.34;;;7.90;100.00
59787;BME280;45672;51.612;5.536;2023-03-25T05:06:43;99978.06;;;7.78;100.00
59787;BME280;45672;51.612;5.536;2023-03-25T05:09:20;99987.09;;;7.67;100.00
59787;BME280;45672;51.612;5.536;2023-03-25T05:11:50;99986.56;;;7.55;100.00
59787;BME280;45672;51.612;5.536;2023-03-25T05:14:18;99993.69;;;7.55;100.00
59787;BME280;45672;51.612;5.536;2023-03-25T05:16:45;99998.34;;;7.61;100.00
59787;BME280;45672;51.612;5.536;2023-03-25T05:19:10;99981.25;;;7.55;100.00
59787;BME280;45672;51.612;5.536;2023-03-25T05:21:37;99999.25;;;7.52;100.00
59787;BME280;45672;51.612;5.536;2023-03-25T05:24:04;99995.06;;;7.41;100.00
59787;BME280;45672;51.612;5.536;2023-03-25T05:26:33;99983.22;;;7.27;100.00
59787;BME280;45672;51.612;5.536;2023-03-25T05:29:06;99995.97;;;7.23;100.00
59787;BME280;45672;51.612;5.536;2023-03-25T05:31:32;99991.81;;;7.21;100.00
59787;BME280;45672;51.612;5.536;2023-03-25T05:33:58;99986.13;;;7.16;100.00
59787;BME280;45672;51.612;5.536;2023-03-25T05:36:24;99986.81;;;7.18;100.00
59787;BME280;45672;51.612;5.536;2023-03-25T05:38:50;100004.34;;;7.19;100.00
59787;BME280;45672;51.612;5.536;2023-03-25T05:41:19;99991.09;;;7.19;100.00
59787;BME280;45672;51.612;5.536;2023-03-25T05:43:45;99992.94;;;7.18;100.00
59787;BME280;45672;51.612;5.536;2023-03-25T05:46:16;99986.19;;;7.24;100.00
59787;BME280;45672;51.612;5.536;2023-03-25T05:48:42;99994.28;;;7.22;100.00
59787;BME280;45672;51.612;5.536;2023-03-25T05:51:16;100006.56;;;7.32;100.00
59787;BME280;45672;51.612;5.536;2023-03-25T05:53:46;100003.19;;;7.39;100.00
59787;BME280;45672;51.612;5.536;2023-03-25T05:56:17;100012.00;;;7.48;100.00
59787;BME280;45672;51.612;5.536;2023-03-25T05:58:47;100017.34;;;7.56;100.00
59787;BME280;45672;51.612;5.536;2023-03-25T06:01:13;100008.94;;;7.61;100.00
59787;BME280;45672;51.612;5.536;2023-03-25T06:03:40;100024.03;;;7.69;100.00
59787;BME280;45672;51.612;5.536;2023-03-25T06:06:08;100021.91;;;7.72;100.00
59787;BME280;45672;51.612;5.536;2023-03-25T06:08:44;100024.56;;;7.72;100.00
59787;BME280;45672;51.612;5.536;2023-03-25T06:11:10;100024.72;;;7.71;100.00
59787;BME280;45672;51.612;5.536;2023-03-25T06:13:38;100028.56;;;7.76;100.00
59787;BME280;45672;51.612;5.536;2023-03-25T06:16:05;100015.47;;;7.75;100.00
59787;BME280;45672;51.612;5.536;2023-03-25T06:18:34;100016.97;;;7.78;100.00
59787;BME280;45672;51.612;5.536;2023-03-25T06:20:59;100026.56;;;7.79;100.00
59787;BME280;45672;51.612;5.536;2023-03-25T06:23:25;100031.03;;;7.78;100.00
59787;BME280;45672;51.612;5.536;2023-03-25T06:25:52;100025.41;;;7.81;100.00
59787;BME280;45672;51.612;5.536;2023-03-25T06:28:18;100029.41;;;7.85;100.00
59787;BME280;45672;51.612;5.536;2023-03-25T06:30:45;100023.31;;;7.85;100.00
59787;BME280;45672;51.612;5.536;2023-03-25T06:33:10;100032.59;;;7.89;100.00
59787;BME280;45672;51.612;5.536;2023-03-25T06:35:41;100024.78;;;7.87;100.00
59787;BME280;45672;51.612;5.536;2023-03-25T06:38:09;100031.28;;;7.93;100.00
59787;BME280;45672;51.612;5.536;2023-03-25T06:40:35;100024.34;;;7.92;100.00
59787;BME280;45672;51.612;5.536;2023-03-25T06:43:05;100041.91;;;8.01;100.00
59787;BME280;45672;51.612;5.536;2023-03-25T06:45:31;100034.00;;;8.09;100.00
59787;BME280;45672;51.612;5.536;2023-03-25T06:47:58;100037.34;;;8.20;100.00
59787;BME280;45672;51.612;5.536;2023-03-25T06:50:23;100034.75;;;8.28;100.00
59787;BME280;45672;51.612;5.536;2023-03-25T06:52:49;100028.28;;;8.31;100.00
59787;BME280;45672;51.612;5.536;2023-03-25T06:55:15;100042.25;;;8.41;100.00
59787;BME280;45672;51.612;5.536;2023-03-25T06:57:40;100038.59;;;8.42;100.00
59787;BME280;45672;51.612;5.536;2023-03-25T07:00:08;100044.13;;;8.49;99.64
59787;BME280;45672;51.612;5.536;2023-03-25T07:02:34;100053.91;;;8.48;98.97
59787;BME280;45672;51.612;5.536;2023-03-25T07:04:59;100050.91;;;8.51;99.26
59787;BME280;45672;51.612;5.536;2023-03-25T07:07:25;100053.28;;;8.54;98.22
59787;BME280;45672;51.612;5.536;2023-03-25T07:09:51;100040.16;;;8.53;97.74
59787;BME280;45672;51.612;5.536;2023-03-25T07:12:19;100038.00;;;8.56;98.03
59787;BME280;45672;51.612;5.536;2023-03-25T07:14:50;100046.31;;;8.61;98.20
59787;BME280;45672;51.612;5.536;2023-03-25T07:17:15;100044.50;;;8.62;97.81
59787;BME280;45672;51.612;5.536;2023-03-25T07:19:40;100038.03;;;8.65;98.30
59787;BME280;45672;51.612;5.536;2023-03-25T07:22:07;100047.50;;;8.67;97.26
59787;BME280;45672;51.612;5.536;2023-03-25T07:24:33;100031.41;;;8.69;97.60
59787;BME280;45672;51.612;5.536;2023-03-25T07:26:58;100057.16;;;9.09;96.64
59787;BME280;45672;51.612;5.536;2023-03-25T07:29:23;100048.22;;;9.19;95.85
59787;BME280;45672;51.612;5.536;2023-03-25T07:31:48;100063.31;;;9.10;96.29
59787;BME280;45672;51.612;5.536;2023-03-25T07:34:14;100055.81;;;8.89;99.56
59787;BME280;45672;51.612;5.536;2023-03-25T07:36:39;100045.97;;;8.56;100.00
59787;BME280;45672;51.612;5.536;2023-03-25T07:39:05;100059.97;;;8.40;100.00
59787;BME280;45672;51.612;5.536;2023-03-25T07:41:32;100059.41;;;8.28;100.00
59787;BME280;45672;51.612;5.536;2023-03-25T07:43:57;100056.44;;;8.23;100.00
59787;BME280;45672;51.612;5.536;2023-03-25T07:46:22;100066.19;;;8.23;100.00
59787;BME280;45672;51.612;5.536;2023-03-25T07:48:48;100076.97;;;8.29;100.00
59787;BME280;45672;51.612;5.536;2023-03-25T07:51:13;100060.91;;;8.31;100.00
59787;BME280;45672;51.612;5.536;2023-03-25T07:53:38;100074.22;;;8.39;100.00
59787;BME280;45672;51.612;5.536;2023-03-25T07:56:06;100068.28;;;8.45;100.00
59787;BME280;45672;51.612;5.536;2023-03-25T07:58:32;100066.50;;;8.46;100.00
59787;BME280;45672;51.612;5.536;2023-03-25T08:00:58;100077.78;;;8.56;100.00
59787;BME280;45672;51.612;5.536;2023-03-25T08:03:23;100084.59;;;8.59;100.00
59787;BME280;45672;51.612;5.536;2023-03-25T08:05:49;100082.44;;;8.62;100.00
59787;BME280;45672;51.612;5.536;2023-03-25T08:08:15;100079.13;;;8.60;100.00
59787;BME280;45672;51.612;5.536;2023-03-25T08:10:45;100079.28;;;8.59;100.00
59787;BME280;45672;51.612;5.536;2023-03-25T08:13:12;100088.59;;;8.63;100.00
59787;BME280;45672;51.612;5.536;2023-03-25T08:15:38;100081.81;;;8.69;100.00
59787;BME280;45672;51.612;5.536;2023-03-25T08:18:04;100097.41;;;8.72;100.00
59787;BME280;45672;51.612;5.536;2023-03-25T08:20:32;100102.22;;;8.76;100.00
59787;BME280;45672;51.612;5.536;2023-03-25T08:22:57;100098.19;;;8.56;100.00
59787;BME280;45672;51.612;5.536;2023-03-25T08:25:23;100088.44;;;8.30;100.00
59787;BME280;45672;51.612;5.536;2023-03-25T08:27:49;100103.44;;;8.21;100.00
59787;BME280;45672;51.612;5.536;2023-03-25T08:30:14;100097.97;;;8.15;100.00
59787;BME280;45672;51.612;5.536;2023-03-25T08:32:41;100102.25;;;8.16;100.00
59787;BME280;45672;51.612;5.536;2023-03-25T08:35:10;100107.75;;;8.22;100.00
59787;BME280;45672;51.612;5.536;2023-03-25T08:37:36;100113.16;;;8.39;100.00
59787;BME280;45672;51.612;5.536;2023-03-25T08:40:02;100108.31;;;8.34;100.00
59787;BME280;45672;51.612;5.536;2023-03-25T08:42:31;100108.13;;;8.27;100.00
59787;BME280;45672;51.612;5.536;2023-03-25T08:44:57;100115.56;;;8.24;100.00
59787;BME280;45672;51.612;5.536;2023-03-25T08:47:22;100110.25;;;8.50;100.00
59787;BME280;45672;51.612;5.536;2023-03-25T08:49:47;100113.28;;;8.63;100.00
59787;BME280;45672;51.612;5.536;2023-03-25T08:52:13;100102.63;;;8.55;100.00
59787;BME280;45672;51.612;5.536;2023-03-25T08:54:38;100093.91;;;8.79;100.00
59787;BME280;45672;51.612;5.536;2023-03-25T08:57:04;100108.91;;;9.05;100.00
59787;BME280;45672;51.612;5.536;2023-03-25T08:59:30;100121.00;;;9.08;100.00
59787;BME280;45672;51.612;5.536;2023-03-25T09:01:55;100107.44;;;9.03;100.00
59787;BME280;45672;51.612;5.536;2023-03-25T09:04:20;100106.44;;;9.20;100.00
59787;BME280;45672;51.612;5.536;2023-03-25T09:06:46;100120.13;;;10.31;100.00
59787;BME280;45672;51.612;5.536;2023-03-25T09:09:11;100121.09;;;11.94;96.58
59787;BME280;45672;51.612;5.536;2023-03-25T09:11:37;100111.72;;;13.31;84.83
59787;BME280;45672;51.612;5.536;2023-03-25T09:14:03;100121.19;;;13.76;80.17
59787;BME280;45672;51.612;5.536;2023-03-25T09:16:30;100115.81;;;13.48;83.90
59787;BME280;45672;51.612;5.536;2023-03-25T09:18:55;100113.06;;;13.91;79.51
59787;BME280;45672;51.612;5.536;2023-03-25T09:21:20;100118.84;;;14.65;74.98
59787;BME280;45672;51.612;5.536;2023-03-25T09:23:46;100120.75;;;14.01;74.71
59787;BME280;45672;51.612;5.536;2023-03-25T09:26:11;100110.53;;;13.83;77.79
59787;BME280;45672;51.612;5.536;2023-03-25T09:28:37;100108.34;;;14.63;75.12
59787;BME280;45672;51.612;5.536;2023-03-25T09:31:02;100120.44;;;15.14;71.99
59787;BME280;45672;51.612;5.536;2023-03-25T09:33:27;100119.72;;;16.66;64.81
59787;BME280;45672;51.612;5.536;2023-03-25T09:35:53;100113.19;;;16.49;61.96
59787;BME280;45672;51.612;5.536;2023-03-25T09:38:19;100120.72;;;15.60;66.59
59787;BME280;45672;51.612;5.536;2023-03-25T09:40:45;100111.63;;;16.01;63.99
59787;BME280;45672;51.612;5.536;2023-03-25T09:45:58;100117.00;;;15.61;62.84
59787;BME280;45672;51.612;5.536;2023-03-25T09:48:39;100126.72;;;14.73;69.42
59787;BME280;45672;51.612;5.536;2023-03-25T09:51:14;100118.19;;;13.21;73.02
59787;BME280;45672;51.612;5.536;2023-03-25T09:53:50;100122.63;;;12.41;80.38
59787;BME280;45672;51.612;5.536;2023-03-25T09:56:26;100134.38;;;12.02;82.53
59787;BME280;45672;51.612;5.536;2023-03-25T09:59:14;100131.97;;;11.69;84.44
59787;BME280;45672;51.612;5.536;2023-03-25T10:07:44;100127.78;;;11.05;91.86
59787;BME280;45672;51.612;5.536;2023-03-25T10:10:44;100133.81;;;10.67;93.48
59787;BME280;45672;51.612;5.536;2023-03-25T10:13:46;100122.25;;;10.44;94.87
59787;BME280;45672;51.612;5.536;2023-03-25T10:19:21;100134.66;;;9.95;97.73
59787;BME280;45672;51.612;5.536;2023-03-25T10:22:03;100136.63;;;10.10;99.49
59787;BME280;45672;51.612;5.536;2023-03-25T10:27:28;100148.41;;;10.15;97.82
59787;BME280;45672;51.612;5.536;2023-03-25T10:32:36;100156.09;;;9.77;100.00
59787;BME280;45672;51.612;5.536;2023-03-25T10:35:08;100148.44;;;9.66;100.00
59787;BME280;45672;51.612;5.536;2023-03-25T10:37:39;100146.63;;;9.50;100.00
59787;BME280;45672;51.612;5.536;2023-03-25T10:40:22;100146.44;;;9.43;100.00
59787;BME280;45672;51.612;5.536;2023-03-25T10:45:36;100152.88;;;9.16;100.00
59787;BME280;45672;51.612;5.536;2023-03-25T10:48:15;100151.06;;;9.25;100.00
59787;BME280;45672;51.612;5.536;2023-03-25T10:50:44;100149.44;;;9.40;100.00
59787;BME280;45672;51.612;5.536;2023-03-25T10:53:26;100151.09;;;9.66;100.00
59787;BME280;45672;51.612;5.536;2023-03-25T10:56:03;100161.06;;;9.80;100.00
59787;BME280;45672;51.612;5.536;2023-03-25T10:58:30;100159.41;;;9.71;100.00
59787;BME280;45672;51.612;5.536;2023-03-25T11:00:58;100159.72;;;9.93;100.00
59787;BME280;45672;51.612;5.536;2023-03-25T11:03:29;100152.66;;;10.33;100.00
59787;BME280;45672;51.612;5.536;2023-03-25T11:05:56;100148.84;;;10.44;100.00
59787;BME280;45672;51.612;5.536;2023-03-25T11:08:21;100161.63;;;10.57;100.00
59787;BME280;45672;51.612;5.536;2023-03-25T11:10:48;100153.63;;;10.57;100.00
59787;BME280;45672;51.612;5.536;2023-03-25T11:13:26;100160.53;;;10.74;98.47
59787;BME280;45672;51.612;5.536;2023-03-25T11:15:53;100150.63;;;10.91;96.57
59787;BME280;45672;51.612;5.536;2023-03-25T11:18:25;100149.28;;;10.95;94.77
59787;BME280;45672;51.612;5.536;2023-03-25T11:21:05;100162.13;;;10.92;92.28
59787;BME280;45672;51.612;5.536;2023-03-25T11:23:33;100158.00;;;10.89;90.94
59787;BME280;45672;51.612;5.536;2023-03-25T11:26:11;100164.91;;;10.98;90.68
59787;BME280;45672;51.612;5.536;2023-03-25T11:28:43;100156.41;;;11.03;88.90
59787;BME280;45672;51.612;5.536;2023-03-25T11:31:14;100162.22;;;11.07;87.14
59787;BME280;45672;51.612;5.536;2023-03-25T11:33:42;100165.41;;;11.02;85.39
59787;BME280;45672;51.612;5.536;2023-03-25T11:38:45;100178.50;;;10.80;87.73
59787;BME280;45672;51.612;5.536;2023-03-25T11:41:12;100172.28;;;10.88;85.87
59787;BME280;45672;51.612;5.536;2023-03-25T11:43:39;100174.81;;;10.81;86.93
59787;BME280;45672;51.612;5.536;2023-03-25T11:46:13;100176.34;;;11.07;84.86
59787;BME280;45672;51.612;5.536;2023-03-25T11:48:41;100168.59;;;11.29;84.01
59787;BME280;45672;51.612;5.536;2023-03-25T11:51:29;100175.63;;;11.21;82.94
59787;BME280;45672;51.612;5.536;2023-03-25T11:53:59;100171.72;;;11.01;83.24
59787;BME280;45672;51.612;5.536;2023-03-25T11:56:31;100175.09;;;10.95;88.35
59787;BME280;45672;51.612;5.536;2023-03-25T11:58:59;100169.44;;;10.90;88.41
59787;BME280;45672;51.612;5.536;2023-03-25T12:01:27;100167.41;;;11.00;89.23
59787;BME280;45672;51.612;5.536;2023-03-25T12:04:13;100163.25;;;11.29;87.89
59787;BME280;45672;51.612;5.536;2023-03-25T12:09:27;100167.41;;;11.54;88.15
59787;BME280;45672;51.612;5.536;2023-03-25T12:12:14;100165.94;;;11.67;87.88
59787;BME280;45672;51.612;5.536;2023-03-25T12:15:04;100165.31;;;11.65;86.89
59787;BME280;45672;51.612;5.536;2023-03-25T12:20:51;100157.53;;;11.40;86.00
59787;BME280;45672;51.612;5.536;2023-03-25T12:26:17;100206.06;;;10.88;88.09
59787;BME280;45672;51.612;5.536;2023-03-25T12:34:26;100163.16;;;9.19;100.00
59787;BME280;45672;51.612;5.536;2023-03-25T12:39:52;100158.19;;;9.16;100.00
59787;BME280;45672;51.612;5.536;2023-03-25T12:45:41;100148.13;;;9.53;100.00
59787;BME280;45672;51.612;5.536;2023-03-25T12:48:35;100152.91;;;9.82;100.00
59787;BME280;45672;51.612;5.536;2023-03-25T13:03:12;100151.16;;;10.55;99.33
59787;BME280;45672;51.612;5.536;2023-03-25T13:05:46;100158.59;;;10.60;100.00
59787;BME280;45672;51.612;5.536;2023-03-25T13:10:55;100167.75;;;10.97;97.44
59787;BME280;45672;51.612;5.536;2023-03-25T13:13:23;100164.28;;;10.96;96.58
59787;BME280;45672;51.612;5.536;2023-03-25T13:16:05;100165.75;;;10.99;97.14
59787;BME280;45672;51.612;5.536;2023-03-25T13:18:35;100174.00;;;11.12;96.73
59787;BME280;45672;51.612;5.536;2023-03-25T13:21:23;100170.34;;;11.13;95.04
59787;BME280;45672;51.612;5.536;2023-03-25T13:23:58;100178.31;;;11.13;94.34
59787;BME280;45672;51.612;5.536;2023-03-25T13:26:27;100160.63;;;11.20;91.50
59787;BME280;45672;51.612;5.536;2023-03-25T13:29:15;100167.69;;;11.36;89.74
59787;BME280;45672;51.612;5.536;2023-03-25T13:31:42;100179.59;;;11.49;86.19
59787;BME280;45672;51.612;5.536;2023-03-25T13:34:30;100190.38;;;11.55;85.34
59787;BME280;45672;51.612;5.536;2023-03-25T13:37:03;100189.13;;;11.66;84.86
59787;BME280;45672;51.612;5.536;2023-03-25T13:40:02;100167.91;;;11.73;83.56
59787;BME280;45672;51.612;5.536;2023-03-25T13:45:24;100169.28;;;11.69;79.07
59787;BME280;45672;51.612;5.536;2023-03-25T13:48:18;100172.59;;;11.71;82.42
59787;BME280;45672;51.612;5.536;2023-03-25T13:50:47;100171.00;;;11.62;80.79
59787;BME280;45672;51.612;5.536;2023-03-25T13:56:27;100173.63;;;11.70;81.49
59787;BME280;45672;51.612;5.536;2023-03-25T13:58:59;100186.50;;;11.81;80.69
59787;BME280;45672;51.612;5.536;2023-03-25T14:01:49;100181.94;;;11.90;80.41
59787;BME280;45672;51.612;5.536;2023-03-25T14:10:36;100178.06;;;12.16;75.45
59787;BME280;45672;51.612;5.536;2023-03-25T14:13:09;100178.34;;;12.21;76.36
59787;BME280;45672;51.612;5.536;2023-03-25T14:15:39;100186.25;;;12.29;71.97
59787;BME280;45672;51.612;5.536;2023-03-25T14:18:14;100176.81;;;12.27;70.97
59787;BME280;45672;51.612;5.536;2023-03-25T14:20:40;100172.66;;;12.24;71.78
59787;BME280;45672;51.612;5.536;2023-03-25T14:23:07;100182.41;;;12.32;72.72
59787;BME280;45672;51.612;5.536;2023-03-25T14:25:39;100183.59;;;12.44;69.96
59787;BME280;45672;51.612;5.536;2023-03-25T14:28:07;100188.66;;;12.39;70.67
59787;BME280;45672;51.612;5.536;2023-03-25T14:30:36;100192.50;;;12.36;70.49
59787;BME280;45672;51.612;5.536;2023-03-25T14:33:02;100195.28;;;12.43;69.91
59787;BME280;45672;51.612;5.536;2023-03-25T14:46:02;100194.19;;;12.52;69.57
59787;BME280;45672;51.612;5.536;2023-03-25T14:53:59;100198.63;;;12.45;67.87
59787;BME280;45672;51.612;5.536;2023-03-25T14:56:37;100216.34;;;12.38;67.37
59787;BME280;45672;51.612;5.536;2023-03-25T14:59:13;100213.28;;;12.26;68.50
59787;BME280;45672;51.612;5.536;2023-03-25T15:01:41;100204.53;;;12.17;68.40
59787;BME280;45672;51.612;5.536;2023-03-25T15:04:26;100221.59;;;12.31;68.76
59787;BME280;45672;51.612;5.536;2023-03-25T15:06:54;100217.16;;;12.23;66.09
59787;BME280;45672;51.612;5.536;2023-03-25T15:09:20;100214.59;;;12.15;66.55
59787;BME280;45672;51.612;5.536;2023-03-25T15:12:02;100232.59;;;12.13;66.99
59787;BME280;45672;51.612;5.536;2023-03-25T15:14:41;100221.34;;;12.03;67.76
59787;BME280;45672;51.612;5.536;2023-03-25T15:17:12;100230.34;;;12.02;66.91